sensor_id;sensor_type;location;lat;lon;timestamp;pressure;altitude;pressure_sealevel;temperature;humidity
16525;BME280;8375;33.594;-117.718;2022-09-29T00:01:21;100086.81;;;28.51;53.91
16525;BME280;8375;33.594;-117.718;2022-09-29T00:03:52;100092.16;;;28.80;52.53
16525;BME280;8375;33.594;-117.718;2022-09-29T00:06:21;100095.25;;;28.60;53.75
16525;BME280;8375;33.594;-117.718;2022-09-29T00:08:50;100097.59;;;28.57;53.83
16525;BME280;8375;33.594;-117.718;2022-09-29T00:11:18;100101.72;;;28.64;53.95
16525;BME280;8375;33.594;-117.718;2022-09-29T00:13:47;100108.06;;;28.75;53.98
16525;BME280;8375;33.594;-117.718;2022-09-29T00:16:16;100105.66;;;28.91;53.37
16525;BME280;8375;33.594;-117.718;2022-09-29T00:18:45;100107.28;;;28.92;53.49
16525;BME280;8375;33.594;-117.718;2022-09-29T00:21:17;100110.63;;;28.70;53.89
16525;BME280;8375;33.594;-117.718;2022-09-29T00:23:46;100110.19;;;28.15;54.89
16525;BME280;8375;33.594;-117.718;2022-09-29T00:26:17;100107.63;;;28.20;54.59
16525;BME280;8375;33.594;-117.718;2022-09-29T00:28:48;100108.28;;;27.75;56.63
16525;BME280;8375;33.594;-117.718;2022-09-29T00:31:18;100113.50;;;27.70;57.03
16525;BME280;8375;33.594;-117.718;2022-09-29T00:33:47;100117.09;;;27.75;56.61
16525;BME280;8375;33.594;-117.718;2022-09-29T00:36:19;100122.75;;;27.07;58.82
16525;BME280;8375;33.594;-117.718;2022-09-29T00:38:50;100128.66;;;26.67;60.19
16525;BME280;8375;33.594;-117.718;2022-09-29T00:41:21;100137.56;;;26.73;60.31
16525;BME280;8375;33.594;-117.718;2022-09-29T00:43:55;100128.34;;;26.75;60.21
16525;BME280;8375;33.594;-117.718;2022-09-29T00:46:33;100124.22;;;26.12;62.28
16525;BME280;8375;33.594;-117.718;2022-09-29T00:49:10;100116.19;;;25.37;65.31
16525;BME280;8375;33.594;-117.718;2022-09-29T00:51:44;100119.59;;;25.19;66.53
16525;BME280;8375;33.594;-117.718;2022-09-29T00:54:15;100127.97;;;24.52;69.39
16525;BME280;8375;33.594;-117.718;2022-09-29T00:56:45;100130.59;;;24.58;69.30
16525;BME280;8375;33.594;-117.718;2022-09-29T00:59:22;100134.81;;;24.66;68.91
16525;BME280;8375;33.594;-117.718;2022-09-29T01:01:54;100146.03;;;24.68;69.20
16525;BME280;8375;33.594;-117.718;2022-09-29T01:04:22;100150.03;;;24.45;69.95
16525;BME280;8375;33.594;-117.718;2022-09-29T01:06:55;100145.22;;;24.29;70.78
16525;BME280;8375;33.594;-117.718;2022-09-29T01:09:27;100136.09;;;23.98;72.53
16525;BME280;8375;33.594;-117.718;2022-09-29T01:11:58;100143.69;;;23.87;72.90
16525;BME280;8375;33.594;-117.718;2022-09-29T01:14:29;100148.19;;;23.67;73.96
16525;BME280;8375;33.594;-117.718;2022-09-29T01:16:59;100145.38;;;23.48;75.00
16525;BME280;8375;33.594;-117.718;2022-09-29T01:19:39;100147.97;;;23.08;77.25
16525;BME280;8375;33.594;-117.718;2022-09-29T01:22:20;100149.38;;;23.10;77.69
16525;BME280;8375;33.594;-117.718;2022-09-29T01:25:01;100152.69;;;23.39;76.27
16525;BME280;8375;33.594;-117.718;2022-09-29T01:30:58;100157.75;;;23.74;74.12
16525;BME280;8375;33.594;-117.718;2022-09-29T01:33:38;100148.59;;;23.77;73.77
16525;BME280;8375;33.594;-117.718;2022-09-29T01:36:16;100158.38;;;23.90;73.25
16525;BME280;8375;33.594;-117.718;2022-09-29T01:38:57;100157.38;;;23.57;74.11
16525;BME280;8375;33.594;-117.718;2022-09-29T01:41:37;100157.56;;;23.56;74.25
16525;BME280;8375;33.594;-117.718;2022-09-29T01:44:15;100167.78;;;23.52;74.16
16525;BME280;8375;33.594;-117.718;2022-09-29T01:46:51;100156.34;;;23.52;74.35
16525;BME280;8375;33.594;-117.718;2022-09-29T01:49:22;100162.66;;;23.51;74.29
16525;BME280;8375;33.594;-117.718;2022-09-29T01:51:54;100166.34;;;23.43;74.59
16525;BME280;8375;33.594;-117.718;2022-09-29T01:54:29;100176.13;;;23.42;74.13
16525;BME280;8375;33.594;-117.718;2022-09-29T01:57:03;100184.88;;;23.50;73.93
16525;BME280;8375;33.594;-117.718;2022-09-29T01:59:40;100184.47;;;23.53;73.86
16525;BME280;8375;33.594;-117.718;2022-09-29T02:02:14;100185.50;;;23.58;73.92
16525;BME280;8375;33.594;-117.718;2022-09-29T02:04:47;100179.78;;;23.62;73.59
16525;BME280;8375;33.594;-117.718;2022-09-29T02:07:21;100184.69;;;23.65;73.60
16525;BME280;8375;33.594;-117.718;2022-09-29T02:09:56;100192.03;;;23.63;73.71
16525;BME280;8375;33.594;-117.718;2022-09-29T02:12:29;100192.22;;;23.54;73.93
16525;BME280;8375;33.594;-117.718;2022-09-29T02:15:01;100197.13;;;23.57;73.85
16525;BME280;8375;33.594;-117.718;2022-09-29T02:17:35;100194.66;;;23.56;74.09
16525;BME280;8375;33.594;-117.718;2022-09-29T02:20:06;100191.41;;;23.54;74.04
16525;BME280;8375;33.594;-117.718;2022-09-29T02:22:38;100193.44;;;23.45;74.24
16525;BME280;8375;33.594;-117.718;2022-09-29T02:25:09;100193.44;;;23.45;74.22
16525;BME280;8375;33.594;-117.718;2022-09-29T02:27:38;100198.72;;;23.38;74.67
16525;BME280;8375;33.594;-117.718;2022-09-29T02:30:09;100200.75;;;23.36;74.56
16525;BME280;8375;33.594;-117.718;2022-09-29T02:32:40;100195.28;;;23.38;74.51
16525;BME280;8375;33.594;-117.718;2022-09-29T02:35:10;100204.22;;;23.30;74.96
16525;BME280;8375;33.594;-117.718;2022-09-29T02:37:49;100208.50;;;23.31;74.95
16525;BME280;8375;33.594;-117.718;2022-09-29T02:40:28;100204.38;;;23.22;75.42
16525;BME280;8375;33.594;-117.718;2022-09-29T02:43:11;100210.47;;;22.95;77.24
16525;BME280;8375;33.594;-117.718;2022-09-29T02:45:53;100213.25;;;22.80;78.23
16525;BME280;8375;33.594;-117.718;2022-09-29T02:48:43;100222.63;;;22.41;80.61
16525;BME280;8375;33.594;-117.718;2022-09-29T02:51:18;100222.31;;;22.22;81.60
16525;BME280;8375;33.594;-117.718;2022-09-29T02:53:57;100224.19;;;22.28;81.04
16525;BME280;8375;33.594;-117.718;2022-09-29T02:56:37;100226.03;;;22.35;80.95
16525;BME280;8375;33.594;-117.718;2022-09-29T02:59:12;100220.97;;;22.40;80.83
16525;BME280;8375;33.594;-117.718;2022-09-29T03:01:48;100224.88;;;22.44;80.49
16525;BME280;8375;33.594;-117.718;2022-09-29T03:04:20;100230.03;;;22.52;80.17
16525;BME280;8375;33.594;-117.718;2022-09-29T03:06:49;100234.50;;;22.52;80.21
16525;BME280;8375;33.594;-117.718;2022-09-29T03:09:19;100234.13;;;22.55;80.23
16525;BME280;8375;33.594;-117.718;2022-09-29T03:11:48;100245.09;;;22.52;79.71
16525;BME280;8375;33.594;-117.718;2022-09-29T03:14:17;100255.06;;;22.50;80.03
16525;BME280;8375;33.594;-117.718;2022-09-29T03:16:46;100253.59;;;22.47;79.85
16525;BME280;8375;33.594;-117.718;2022-09-29T03:19:15;100255.19;;;22.41;80.67
16525;BME280;8375;33.594;-117.718;2022-09-29T03:21:45;100266.53;;;22.35;80.94
16525;BME280;8375;33.594;-117.718;2022-09-29T03:24:14;100267.53;;;22.34;80.86
16525;BME280;8375;33.594;-117.718;2022-09-29T03:26:44;100269.66;;;22.17;82.29
16525;BME280;8375;33.594;-117.718;2022-09-29T03:29:13;100268.41;;;22.13;82.16
16525;BME280;8375;33.594;-117.718;2022-09-29T03:31:41;100272.28;;;22.10;82.35
16525;BME280;8375;33.594;-117.718;2022-09-29T03:34:10;100281.97;;;22.03;83.10
16525;BME280;8375;33.594;-117.718;2022-09-29T03:36:46;100286.19;;;21.97;83.34
16525;BME280;8375;33.594;-117.718;2022-09-29T03:39:15;100282.75;;;21.97;83.25
16525;BME280;8375;33.594;-117.718;2022-09-29T03:41:44;100284.16;;;22.00;83.49
16525;BME280;8375;33.594;-117.718;2022-09-29T03:44:13;100272.44;;;22.09;83.08
16525;BME280;8375;33.594;-117.718;2022-09-29T03:46:42;100281.38;;;22.08;83.21
16525;BME280;8375;33.594;-117.718;2022-09-29T03:49:11;100294.81;;;22.06;83.00
16525;BME280;8375;33.594;-117.718;2022-09-29T03:51:41;100291.34;;;22.06;83.15
16525;BME280;8375;33.594;-117.718;2022-09-29T03:54:11;100304.66;;;21.91;84.41
16525;BME280;8375;33.594;-117.718;2022-09-29T03:56:40;100308.22;;;21.83;84.80
16525;BME280;8375;33.594;-117.718;2022-09-29T03:59:09;100321.00;;;21.79;85.19
16525;BME280;8375;33.594;-117.718;2022-09-29T04:01:40;100311.56;;;21.70;86.17
16525;BME280;8375;33.594;-117.718;2022-09-29T04:04:09;100309.78;;;21.56;87.06
16525;BME280;8375;33.594;-117.718;2022-09-29T04:06:38;100304.72;;;21.39;88.39
16525;BME280;8375;33.594;-117.718;2022-09-29T04:09:07;100307.03;;;21.27;88.89
16525;BME280;8375;33.594;-117.718;2022-09-29T04:11:38;100324.16;;;21.16;90.42
16525;BME280;8375;33.594;-117.718;2022-09-29T04:14:07;100321.06;;;21.13;90.65
16525;BME280;8375;33.594;-117.718;2022-09-29T04:16:37;100320.88;;;21.14;90.23
16525;BME280;8375;33.594;-117.718;2022-09-29T04:19:06;100318.25;;;21.14;90.86
16525;BME280;8375;33.594;-117.718;2022-09-29T04:21:35;100323.78;;;21.19;90.35
16525;BME280;8375;33.594;-117.718;2022-09-29T04:24:04;100313.50;;;21.24;90.34
16525;BME280;8375;33.594;-117.718;2022-09-29T04:26:33;100316.22;;;21.31;89.87
16525;BME280;8375;33.594;-117.718;2022-09-29T04:29:04;100316.41;;;21.30;89.67
16525;BME280;8375;33.594;-117.718;2022-09-29T04:31:33;100320.88;;;21.29;89.72
16525;BME280;8375;33.594;-117.718;2022-09-29T04:34:02;100329.41;;;21.31;89.62
16525;BME280;8375;33.594;-117.718;2022-09-29T04:36:31;100321.69;;;21.30;89.89
16525;BME280;8375;33.594;-117.718;2022-09-29T04:39:00;100330.16;;;21.25;90.79
16525;BME280;8375;33.594;-117.718;2022-09-29T04:41:29;100326.78;;;21.16;91.50
16525;BME280;8375;33.594;-117.718;2022-09-29T04:44:00;100326.00;;;21.16;91.44
16525;BME280;8375;33.594;-117.718;2022-09-29T04:46:33;100324.97;;;21.17;91.17
16525;BME280;8375;33.594;-117.718;2022-09-29T04:49:02;100327.63;;;21.17;91.22
16525;BME280;8375;33.594;-117.718;2022-09-29T04:51:31;100335.91;;;21.14;92.01
16525;BME280;8375;33.594;-117.718;2022-09-29T04:54:00;100331.06;;;21.17;91.35
16525;BME280;8375;33.594;-117.718;2022-09-29T04:56:29;100327.00;;;21.15;91.98
16525;BME280;8375;33.594;-117.718;2022-09-29T04:58:58;100329.25;;;21.18;91.79
16525;BME280;8375;33.594;-117.718;2022-09-29T05:01:27;100327.16;;;21.13;91.46
16525;BME280;8375;33.594;-117.718;2022-09-29T05:03:57;100330.63;;;21.14;91.97
16525;BME280;8375;33.594;-117.718;2022-09-29T05:06:26;100323.09;;;21.10;91.97
16525;BME280;8375;33.594;-117.718;2022-09-29T05:08:55;100336.72;;;21.14;91.83
16525;BME280;8375;33.594;-117.718;2022-09-29T05:11:23;100326.53;;;21.11;91.47
16525;BME280;8375;33.594;-117.718;2022-09-29T05:13:52;100336.28;;;21.10;91.72
16525;BME280;8375;33.594;-117.718;2022-09-29T05:16:21;100333.00;;;21.08;91.96
16525;BME280;8375;33.594;-117.718;2022-09-29T05:18:50;100333.53;;;21.04;91.92
16525;BME280;8375;33.594;-117.718;2022-09-29T05:21:20;100335.38;;;21.03;92.71
16525;BME280;8375;33.594;-117.718;2022-09-29T05:23:49;100336.31;;;21.32;91.43
16525;BME280;8375;33.594;-117.718;2022-09-29T05:26:18;100331.63;;;21.64;89.60
16525;BME280;8375;33.594;-117.718;2022-09-29T05:28:47;100334.97;;;21.95;86.86
16525;BME280;8375;33.594;-117.718;2022-09-29T05:31:16;100333.69;;;22.12;85.08
16525;BME280;8375;33.594;-117.718;2022-09-29T05:33:45;100329.03;;;22.15;83.60
16525;BME280;8375;33.594;-117.718;2022-09-29T05:36:13;100339.00;;;22.19;84.13
16525;BME280;8375;33.594;-117.718;2022-09-29T05:38:44;100339.72;;;22.28;82.93
16525;BME280;8375;33.594;-117.718;2022-09-29T05:41:13;100332.63;;;22.35;82.96
16525;BME280;8375;33.594;-117.718;2022-09-29T05:43:42;100328.13;;;22.29;82.42
16525;BME280;8375;33.594;-117.718;2022-09-29T05:46:11;100323.13;;;22.12;83.49
16525;BME280;8375;33.594;-117.718;2022-09-29T05:48:40;100329.69;;;21.95;84.41
16525;BME280;8375;33.594;-117.718;2022-09-29T05:51:11;100323.03;;;21.77;85.43
16525;BME280;8375;33.594;-117.718;2022-09-29T05:53:41;100329.44;;;21.68;86.05
16525;BME280;8375;33.594;-117.718;2022-09-29T05:56:13;100327.63;;;21.53;86.41
16525;BME280;8375;33.594;-117.718;2022-09-29T05:58:43;100333.66;;;21.47;86.77
16525;BME280;8375;33.594;-117.718;2022-09-29T06:01:14;100331.94;;;21.39;87.61
16525;BME280;8375;33.594;-117.718;2022-09-29T06:03:43;100330.88;;;21.34;87.78
16525;BME280;8375;33.594;-117.718;2022-09-29T06:06:13;100330.25;;;21.32;87.98
16525;BME280;8375;33.594;-117.718;2022-09-29T06:08:43;100332.63;;;21.27;88.41
16525;BME280;8375;33.594;-117.718;2022-09-29T06:11:14;100332.53;;;21.20;88.81
16525;BME280;8375;33.594;-117.718;2022-09-29T06:13:45;100327.63;;;21.17;88.73
16525;BME280;8375;33.594;-117.718;2022-09-29T06:16:16;100329.78;;;21.13;89.31
16525;BME280;8375;33.594;-117.718;2022-09-29T06:18:45;100332.81;;;21.10;89.70
16525;BME280;8375;33.594;-117.718;2022-09-29T06:21:15;100325.88;;;21.09;89.11
16525;BME280;8375;33.594;-117.718;2022-09-29T06:23:45;100333.38;;;21.05;89.52
16525;BME280;8375;33.594;-117.718;2022-09-29T06:26:16;100337.19;;;21.03;89.67
16525;BME280;8375;33.594;-117.718;2022-09-29T06:28:46;100336.75;;;20.99;89.75
16525;BME280;8375;33.594;-117.718;2022-09-29T06:31:16;100332.47;;;20.98;89.55
16525;BME280;8375;33.594;-117.718;2022-09-29T06:33:45;100333.00;;;20.93;90.27
16525;BME280;8375;33.594;-117.718;2022-09-29T06:36:17;100334.19;;;20.91;90.57
16525;BME280;8375;33.594;-117.718;2022-09-29T06:39:03;100336.38;;;20.87;90.16
16525;BME280;8375;33.594;-117.718;2022-09-29T06:41:34;100344.94;;;20.89;90.13
16525;BME280;8375;33.594;-117.718;2022-09-29T06:44:03;100339.38;;;20.84;90.61
16525;BME280;8375;33.594;-117.718;2022-09-29T06:46:32;100332.28;;;20.85;90.66
16525;BME280;8375;33.594;-117.718;2022-09-29T06:49:01;100330.47;;;20.85;91.06
16525;BME280;8375;33.594;-117.718;2022-09-29T06:51:30;100327.56;;;20.80;91.15
16525;BME280;8375;33.594;-117.718;2022-09-29T06:53:58;100323.28;;;20.79;91.21
16525;BME280;8375;33.594;-117.718;2022-09-29T06:56:27;100319.97;;;20.77;91.18
16525;BME280;8375;33.594;-117.718;2022-09-29T06:58:58;100325.97;;;20.71;91.41
16525;BME280;8375;33.594;-117.718;2022-09-29T07:01:26;100326.97;;;20.70;91.46
16525;BME280;8375;33.594;-117.718;2022-09-29T07:03:55;100326.97;;;20.70;91.53
16525;BME280;8375;33.594;-117.718;2022-09-29T07:06:26;100327.19;;;20.68;91.37
16525;BME280;8375;33.594;-117.718;2022-09-29T07:08:55;100326.34;;;20.67;91.20
16525;BME280;8375;33.594;-117.718;2022-09-29T07:11:24;100327.69;;;20.63;91.15
16525;BME280;8375;33.594;-117.718;2022-09-29T07:13:53;100326.69;;;20.64;91.31
16525;BME280;8375;33.594;-117.718;2022-09-29T07:16:24;100332.19;;;20.63;91.31
16525;BME280;8375;33.594;-117.718;2022-09-29T07:18:53;100325.44;;;20.60;91.59
16525;BME280;8375;33.594;-117.718;2022-09-29T07:21:21;100328.78;;;20.54;91.71
16525;BME280;8375;33.594;-117.718;2022-09-29T07:23:50;100319.59;;;20.50;91.66
16525;BME280;8375;33.594;-117.718;2022-09-29T07:26:19;100321.44;;;20.49;91.47
16525;BME280;8375;33.594;-117.718;2022-09-29T07:28:48;100325.88;;;20.49;91.75
16525;BME280;8375;33.594;-117.718;2022-09-29T07:31:18;100323.06;;;20.50;92.10
16525;BME280;8375;33.594;-117.718;2022-09-29T07:33:49;100325.06;;;20.48;92.16
16525;BME280;8375;33.594;-117.718;2022-09-29T07:36:19;100322.59;;;20.47;92.04
16525;BME280;8375;33.594;-117.718;2022-09-29T07:38:49;100324.16;;;20.41;92.34
16525;BME280;8375;33.594;-117.718;2022-09-29T07:41:19;100323.50;;;20.39;92.48
16525;BME280;8375;33.594;-117.718;2022-09-29T07:43:48;100325.31;;;20.38;92.78
16525;BME280;8375;33.594;-117.718;2022-09-29T07:46:17;100333.22;;;20.38;92.73
16525;BME280;8375;33.594;-117.718;2022-09-29T07:48:45;100328.94;;;20.37;93.68
16525;BME280;8375;33.594;-117.718;2022-09-29T07:51:17;100330.84;;;20.29;95.15
16525;BME280;8375;33.594;-117.718;2022-09-29T07:53:46;100328.03;;;20.30;94.95
16525;BME280;8375;33.594;-117.718;2022-09-29T07:56:17;100333.13;;;20.32;95.14
16525;BME280;8375;33.594;-117.718;2022-09-29T07:58:47;100334.31;;;20.29;94.97
16525;BME280;8375;33.594;-117.718;2022-09-29T08:01:17;100329.31;;;20.34;94.92
16525;BME280;8375;33.594;-117.718;2022-09-29T08:03:49;100329.16;;;20.36;94.81
16525;BME280;8375;33.594;-117.718;2022-09-29T08:06:22;100329.31;;;20.34;94.68
16525;BME280;8375;33.594;-117.718;2022-09-29T08:08:51;100328.94;;;20.37;94.71
16525;BME280;8375;33.594;-117.718;2022-09-29T08:11:20;100326.59;;;20.43;94.20
16525;BME280;8375;33.594;-117.718;2022-09-29T08:13:51;100325.44;;;20.45;93.79
16525;BME280;8375;33.594;-117.718;2022-09-29T08:16:20;100320.53;;;20.42;94.19
16525;BME280;8375;33.594;-117.718;2022-09-29T08:18:49;100320.03;;;20.38;94.02
16525;BME280;8375;33.594;-117.718;2022-09-29T08:21:18;100316.97;;;20.35;94.01
16525;BME280;8375;33.594;-117.718;2022-09-29T08:23:48;100316.84;;;20.28;94.43
16525;BME280;8375;33.594;-117.718;2022-09-29T08:26:18;100321.94;;;20.30;94.15
16525;BME280;8375;33.594;-117.718;2022-09-29T08:28:47;100307.31;;;20.27;94.52
16525;BME280;8375;33.594;-117.718;2022-09-29T08:31:18;100310.94;;;20.26;94.42
16525;BME280;8375;33.594;-117.718;2022-09-29T08:33:48;100309.66;;;20.22;94.78
16525;BME280;8375;33.594;-117.718;2022-09-29T08:36:17;100314.47;;;20.18;94.80
16525;BME280;8375;33.594;-117.718;2022-09-29T08:38:49;100311.84;;;20.18;95.23
16525;BME280;8375;33.594;-117.718;2022-09-29T08:41:31;100312.66;;;20.19;95.48
16525;BME280;8375;33.594;-117.718;2022-09-29T08:44:04;100316.19;;;20.11;95.51
16525;BME280;8375;33.594;-117.718;2022-09-29T08:46:38;100312.72;;;20.11;95.52
16525;BME280;8375;33.594;-117.718;2022-09-29T08:49:18;100307.34;;;20.04;96.15
16525;BME280;8375;33.594;-117.718;2022-09-29T08:51:51;100310.50;;;19.99;96.47
16525;BME280;8375;33.594;-117.718;2022-09-29T08:54:26;100314.97;;;19.99;96.63
16525;BME280;8375;33.594;-117.718;2022-09-29T08:56:57;100316.13;;;19.96;96.65
16525;BME280;8375;33.594;-117.718;2022-09-29T08:59:27;100312.50;;;19.97;96.59
16525;BME280;8375;33.594;-117.718;2022-09-29T09:02:21;100317.00;;;19.88;96.79
16525;BME280;8375;33.594;-117.718;2022-09-29T09:05:21;100306.31;;;19.90;96.12
16525;BME280;8375;33.594;-117.718;2022-09-29T09:07:59;100314.53;;;19.87;96.14
16525;BME280;8375;33.594;-117.718;2022-09-29T09:10:38;100304.19;;;19.85;96.35
16525;BME280;8375;33.594;-117.718;2022-09-29T09:13:23;100311.59;;;19.82;95.79
16525;BME280;8375;33.594;-117.718;2022-09-29T09:16:10;100305.06;;;19.77;96.01
16525;BME280;8375;33.594;-117.718;2022-09-29T09:18:57;100314.44;;;19.80;96.08
16525;BME280;8375;33.594;-117.718;2022-09-29T09:21:36;100307.34;;;19.81;95.77
16525;BME280;8375;33.594;-117.718;2022-09-29T09:24:15;100312.66;;;19.72;96.53
16525;BME280;8375;33.594;-117.718;2022-09-29T09:26:46;100319.13;;;19.70;96.19
16525;BME280;8375;33.594;-117.718;2022-09-29T09:29:22;100322.91;;;19.67;96.89
16525;BME280;8375;33.594;-117.718;2022-09-29T09:31:55;100323.09;;;19.66;96.85
16525;BME280;8375;33.594;-117.718;2022-09-29T09:34:30;100324.59;;;19.60;96.48
16525;BME280;8375;33.594;-117.718;2022-09-29T09:37:05;100314.25;;;19.58;96.02
16525;BME280;8375;33.594;-117.718;2022-09-29T09:39:42;100309.97;;;19.57;95.26
16525;BME280;8375;33.594;-117.718;2022-09-29T09:42:17;100313.59;;;19.56;96.44
16525;BME280;8375;33.594;-117.718;2022-09-29T09:44:49;100318.72;;;19.49;97.01
16525;BME280;8375;33.594;-117.718;2022-09-29T09:47:24;100308.84;;;19.52;96.79
16525;BME280;8375;33.594;-117.718;2022-09-29T09:49:56;100305.56;;;19.49;96.59
16525;BME280;8375;33.594;-117.718;2022-09-29T09:52:32;100307.22;;;19.50;96.58
16525;BME280;8375;33.594;-117.718;2022-09-29T09:55:06;100308.19;;;19.49;96.64
16525;BME280;8375;33.594;-117.718;2022-09-29T09:58:00;100304.13;;;19.47;96.38
16525;BME280;8375;33.594;-117.718;2022-09-29T10:00:35;100301.66;;;19.45;96.58
16525;BME280;8375;33.594;-117.718;2022-09-29T10:03:07;100305.13;;;19.46;96.61
16525;BME280;8375;33.594;-117.718;2022-09-29T10:05:39;100302.47;;;19.46;96.62
16525;BME280;8375;33.594;-117.718;2022-09-29T10:08:14;100289.31;;;19.46;96.65
16525;BME280;8375;33.594;-117.718;2022-09-29T10:10:44;100289.19;;;19.39;97.24
16525;BME280;8375;33.594;-117.718;2022-09-29T10:13:15;100286.91;;;19.36;97.04
16525;BME280;8375;33.594;-117.718;2022-09-29T10:15:49;100281.63;;;19.36;96.71
16525;BME280;8375;33.594;-117.718;2022-09-29T10:18:23;100279.19;;;19.34;96.98
16525;BME280;8375;33.594;-117.718;2022-09-29T10:20:55;100282.63;;;19.35;96.65
16525;BME280;8375;33.594;-117.718;2022-09-29T10:23:26;100285.44;;;19.33;96.99
16525;BME280;8375;33.594;-117.718;2022-09-29T10:25:59;100278.69;;;19.31;97.17
16525;BME280;8375;33.594;-117.718;2022-09-29T10:28:42;100278.06;;;19.29;97.05
16525;BME280;8375;33.594;-117.718;2022-09-29T10:31:23;100275.63;;;19.27;97.44
16525;BME280;8375;33.594;-117.718;2022-09-29T10:33:55;100270.81;;;19.31;97.42
16525;BME280;8375;33.594;-117.718;2022-09-29T10:36:26;100272.44;;;19.32;97.58
16525;BME280;8375;33.594;-117.718;2022-09-29T10:38:56;100281.34;;;19.31;98.01
16525;BME280;8375;33.594;-117.718;2022-09-29T10:41:24;100278.19;;;19.35;98.45
16525;BME280;8375;33.594;-117.718;2022-09-29T10:43:56;100280.81;;;19.35;98.36
16525;BME280;8375;33.594;-117.718;2022-09-29T10:46:49;100287.19;;;19.41;98.20
16525;BME280;8375;33.594;-117.718;2022-09-29T10:49:19;100278.59;;;19.47;98.73
16525;BME280;8375;33.594;-117.718;2022-09-29T10:51:54;100279.59;;;19.46;99.28
16525;BME280;8375;33.594;-117.718;2022-09-29T10:54:25;100270.19;;;19.52;99.92
16525;BME280;8375;33.594;-117.718;2022-09-29T10:56:55;100263.00;;;19.46;100.00
16525;BME280;8375;33.594;-117.718;2022-09-29T10:59:26;100266.97;;;19.42;99.90
16525;BME280;8375;33.594;-117.718;2022-09-29T11:01:58;100260.94;;;19.33;99.74
16525;BME280;8375;33.594;-117.718;2022-09-29T11:04:31;100266.53;;;19.30;99.49
16525;BME280;8375;33.594;-117.718;2022-09-29T11:07:06;100267.72;;;19.27;99.46
16525;BME280;8375;33.594;-117.718;2022-09-29T11:09:41;100274.66;;;19.20;100.00
16525;BME280;8375;33.594;-117.718;2022-09-29T11:12:30;100269.56;;;19.18;100.00
16525;BME280;8375;33.594;-117.718;2022-09-29T11:15:01;100271.75;;;19.15;100.00
16525;BME280;8375;33.594;-117.718;2022-09-29T11:17:35;100273.19;;;19.17;100.00
16525;BME280;8375;33.594;-117.718;2022-09-29T11:20:09;100273.38;;;19.16;100.00
16525;BME280;8375;33.594;-117.718;2022-09-29T11:23:08;100273.38;;;19.16;100.00
16525;BME280;8375;33.594;-117.718;2022-09-29T11:26:04;100270.91;;;19.14;99.67
16525;BME280;8375;33.594;-117.718;2022-09-29T11:31:42;100288.56;;;19.05;98.98
16525;BME280;8375;33.594;-117.718;2022-09-29T11:34:36;100289.69;;;19.03;98.56
16525;BME280;8375;33.594;-117.718;2022-09-29T11:37:20;100280.00;;;19.03;99.18
16525;BME280;8375;33.594;-117.718;2022-09-29T11:40:00;100287.72;;;19.05;99.36
16525;BME280;8375;33.594;-117.718;2022-09-29T11:42:41;100281.31;;;19.08;99.57
16525;BME280;8375;33.594;-117.718;2022-09-29T11:45:12;100289.34;;;19.06;100.00
16525;BME280;8375;33.594;-117.718;2022-09-29T11:48:11;100290.19;;;19.07;100.00
16525;BME280;8375;33.594;-117.718;2022-09-29T11:50:53;100292.81;;;19.07;99.79
16525;BME280;8375;33.594;-117.718;2022-09-29T11:53:43;100291.34;;;19.04;100.00
16525;BME280;8375;33.594;-117.718;2022-09-29T11:56:23;100285.63;;;19.00;99.82
16525;BME280;8375;33.594;-117.718;2022-09-29T11:59:09;100291.22;;;18.97;100.00
16525;BME280;8375;33.594;-117.718;2022-09-29T12:01:53;100290.53;;;18.95;100.00
16525;BME280;8375;33.594;-117.718;2022-09-29T12:04:38;100286.09;;;18.96;100.00
16525;BME280;8375;33.594;-117.718;2022-09-29T12:07:23;100285.28;;;18.95;100.00
16525;BME280;8375;33.594;-117.718;2022-09-29T12:10:07;100290.03;;;19.00;100.00
16525;BME280;8375;33.594;-117.718;2022-09-29T12:12:48;100293.97;;;19.04;100.00
16525;BME280;8375;33.594;-117.718;2022-09-29T12:15:31;100296.25;;;19.07;100.00
16525;BME280;8375;33.594;-117.718;2022-09-29T12:18:10;100291.31;;;19.12;100.00
16525;BME280;8375;33.594;-117.718;2022-09-29T12:20:45;100279.78;;;19.13;100.00
16525;BME280;8375;33.594;-117.718;2022-09-29T12:23:18;100284.69;;;19.16;100.00
16525;BME280;8375;33.594;-117.718;2022-09-29T12:25:53;100289.63;;;19.19;100.00
16525;BME280;8375;33.594;-117.718;2022-09-29T12:28:29;100288.97;;;19.17;100.00
16525;BME280;8375;33.594;-117.718;2022-09-29T12:31:03;100289.63;;;19.19;100.00
16525;BME280;8375;33.594;-117.718;2022-09-29T12:33:38;100288.63;;;19.20;100.00
16525;BME280;8375;33.594;-117.718;2022-09-29T12:36:19;100286.00;;;19.20;100.00
16525;BME280;8375;33.594;-117.718;2022-09-29T12:39:15;100291.75;;;19.24;100.00
16525;BME280;8375;33.594;-117.718;2022-09-29T12:41:48;100286.13;;;19.27;100.00
16525;BME280;8375;33.594;-117.718;2022-09-29T12:44:25;100287.97;;;19.18;100.00
16525;BME280;8375;33.594;-117.718;2022-09-29T12:47:02;100285.03;;;19.13;100.00
16525;BME280;8375;33.594;-117.718;2022-09-29T12:49:36;100289.63;;;19.19;100.00
16525;BME280;8375;33.594;-117.718;2022-09-29T12:52:16;100289.28;;;19.23;100.00
16525;BME280;8375;33.594;-117.718;2022-09-29T12:54:52;100289.47;;;19.21;100.00
16525;BME280;8375;33.594;-117.718;2022-09-29T12:57:25;100292.59;;;19.16;100.00
16525;BME280;8375;33.594;-117.718;2022-09-29T12:59:57;100300.00;;;19.21;100.00
16525;BME280;8375;33.594;-117.718;2022-09-29T13:02:46;100295.91;;;19.10;100.00
16525;BME280;8375;33.594;-117.718;2022-09-29T13:05:46;100288.22;;;19.09;100.00